Earl Gonsoulin — WDC3306 — position and weather

sailwx.info

Track history (hours):
 
Tides and Currents Weather Stations Pressure Air Temp Water Temp Dewpoint Dewpoint Depression Visibility Wind Speed Wind Dir Waves Ship Positions

Earl Gonsoulin

Owner: LeBeouf Bros. Towing, L.L.C., Houma, LA. More information available from US FCC via Universal Licensing System and Coast Guard Vessel Documentation Center.

Last reported at 2016-Aug-26 12:13 UTC. Time now 2016-Aug-28 20:40 UTC.
Position N 29°34' W 090°30'.

Length 21 m; draft 3 m.

Type: Tug. MMSI: 367005550.

Date/timePositionNaut miles runAvg speedWind from/ knotsBaromVisibWave heightAir tempDewpointWater temp
2016-Aug-26 12:13N 29°34' W 090°30'2 3.1
2016-Aug-26 11:33N 29°34' W 090°32'3 2.9
2016-Aug-26 10:34N 29°35' W 090°36'3 2.9
2016-Aug-26 09:33N 29°36' W 090°39'3 3.4
2016-Aug-26 08:34N 29°36' W 090°43'3 2.9
2016-Aug-26 07:34N 29°34' W 090°44'4 4.0
2016-Aug-26 06:33N 29°32' W 090°48'50 2.8
2016-Aug-25 12:32N 29°46' W 091°43'5 4.4
2016-Aug-25 11:28N 29°47' W 091°48'4 4.3
2016-Aug-25 10:25N 29°51' W 091°51'4 4.8
2016-Aug-25 09:32N 29°51' W 091°56'5 4.8
2016-Aug-25 08:33N 29°49' W 092°01'5 5.2
2016-Aug-25 07:33N 29°48' W 092°07'4 4.2
2016-Aug-25 06:33N 29°47' W 092°12'9 4.7
2016-Aug-25 04:33N 29°51' W 092°21'4 4.5
2016-Aug-25 03:34N 29°53' W 092°26'6 5.8
2016-Aug-25 02:31N 29°54' W 092°33'24 4.5
2016-Aug-24 21:08N 29°56' W 093°01'3 3.8
2016-Aug-24 20:27N 29°56' W 093°04'3 3.6
2016-Aug-24 19:32N 29°56' W 093°08'4 3.8
2016-Aug-24 18:34N 29°58' W 093°11'4 3.7
2016-Aug-24 17:32N 30°01' W 093°14'3 2.6
2016-Aug-24 16:30N 30°03' W 093°16'3 2.9
2016-Aug-24 15:31N 30°05' W 093°18'3 3.2
2016-Aug-24 14:30N 30°08' W 093°20'5 5.4
2016-Aug-24 13:30N 30°12' W 093°16'1 1.4
2016-Aug-24 12:26N 30°14' W 093°16'0 0.2
2016-Aug-24 11:33N 30°14' W 093°15'0 0.0
2016-Aug-24 10:34N 30°14' W 093°15'0 0.0
2016-Aug-24 09:33N 30°14' W 093°15'0 0.0
2016-Aug-24 08:26N 30°14' W 093°15'0 0.0
2016-Aug-24 07:28N 30°14' W 093°15'0 0.0
2016-Aug-24 06:28N 30°14' W 093°15'0 0.0
2016-Aug-24 04:26N 30°14' W 093°15'0 0.0
2016-Aug-24 03:25N 30°14' W 093°15'0 0.0
2016-Aug-24 02:25N 30°14' W 093°15'0 0.0
2016-Aug-24 01:32N 30°14' W 093°15'0 0.0
2016-Aug-24 00:28N 30°14' W 093°15'0 0.0
2016-Aug-23 23:33N 30°14' W 093°15'0 0.0
2016-Aug-23 22:31N 30°14' W 093°15'0 0.0
2016-Aug-23 21:33N 30°14' W 093°15'0 0.0
2016-Aug-23 20:30N 30°14' W 093°15'0 0.0
2016-Aug-23 19:30N 30°14' W 093°15'0 0.0
2016-Aug-23 18:34N 30°14' W 093°15'0 0.5
2016-Aug-23 17:33N 30°14' W 093°16'0 0.0
2016-Aug-23 16:31N 30°14' W 093°16'0 0.0
2016-Aug-23 15:33N 30°14' W 093°16'0 0.0
2016-Aug-23 14:34N 30°14' W 093°16'0 0.0
2016-Aug-23 13:32N 30°14' W 093°16'0 0.0
2016-Aug-23 12:34N 30°14' W 093°16'0 0.0
2016-Aug-23 11:33N 30°14' W 093°16'0 0.0
2016-Aug-23 10:34N 30°14' W 093°16'0 0.0
2016-Aug-23 09:33N 30°14' W 093°16'0 0.0
2016-Aug-23 08:34N 30°14' W 093°16'0 0.0
2016-Aug-23 07:34N 30°14' W 093°16'0 0.0
2016-Aug-23 06:33N 30°14' W 093°16'0 0.0
2016-Aug-23 05:34N 30°14' W 093°16'0 0.0
2016-Aug-23 04:33N 30°14' W 093°16'0 0.0
2016-Aug-23 03:34N 30°14' W 093°16'0 0.0
2016-Aug-23 02:34N 30°14' W 093°16'0 0.0
2016-Aug-23 01:34N 30°14' W 093°16'0 0.0
2016-Aug-23 00:33N 30°14' W 093°16'0 0.0
2016-Aug-22 23:33N 30°14' W 093°16'0 0.0
2016-Aug-22 22:34N 30°14' W 093°16'0 0.0
2016-Aug-22 21:34N 30°14' W 093°16'0 0.0
2016-Aug-22 20:33N 30°14' W 093°16'0 0.0
2016-Aug-22 19:34N 30°14' W 093°16'0 0.0
2016-Aug-22 18:34N 30°14' W 093°16'0 0.0
2016-Aug-22 17:33N 30°14' W 093°16'0 0.0
2016-Aug-22 16:33N 30°14' W 093°16'0 0.0
2016-Aug-22 15:34N 30°14' W 093°16'0 0.0
2016-Aug-22 14:34N 30°14' W 093°16'0 0.0
2016-Aug-22 13:34N 30°14' W 093°16'0 0.0
2016-Aug-22 12:33N 30°14' W 093°16'0 0.0
2016-Aug-22 11:34N 30°14' W 093°16'0 0.0
2016-Aug-22 10:33N 30°14' W 093°16'0 0.0
2016-Aug-22 09:34N 30°14' W 093°16'0 0.0
2016-Aug-22 08:33N 30°14' W 093°16'0 0.0
2016-Aug-22 07:34N 30°14' W 093°16'0 0.0
2016-Aug-22 06:34N 30°14' W 093°16'0 0.0
2016-Aug-22 05:33N 30°14' W 093°16'0 0.0
2016-Aug-22 04:34N 30°14' W 093°16'0 0.0
2016-Aug-22 03:33N 30°14' W 093°16'0 0.0
2016-Aug-22 02:34N 30°14' W 093°16'0 0.0
2016-Aug-22 01:34N 30°14' W 093°16'0 0.0
2016-Aug-22 00:34N 30°14' W 093°16'0 0.0
2016-Aug-21 23:34N 30°14' W 093°16'0 0.0
2016-Aug-21 22:34N 30°14' W 093°16'0 0.0
2016-Aug-21 21:33N 30°14' W 093°16'0 0.0
2016-Aug-21 20:33N 30°14' W 093°16'0 0.0
2016-Aug-21 19:34N 30°14' W 093°16'0 0.0
2016-Aug-21 18:34N 30°14' W 093°16'0 0.0
2016-Aug-21 17:33N 30°14' W 093°16'0 0.0
2016-Aug-21 16:34N 30°14' W 093°16'0 0.0
2016-Aug-21 15:34N 30°14' W 093°16'0 0.0
2016-Aug-21 14:34N 30°14' W 093°16'0 0.0
2016-Aug-21 13:34N 30°14' W 093°16'0 0.0
2016-Aug-21 12:33N 30°14' W 093°16'0 0.0
2016-Aug-21 11:34N 30°14' W 093°16'0 0.0
2016-Aug-21 10:33N 30°14' W 093°16'0 0.0
2016-Aug-21 09:33N 30°14' W 093°16'0 0.0
2016-Aug-21 08:34N 30°14' W 093°16'0 0.0
2016-Aug-21 07:34N 30°14' W 093°16'0 0.0
2016-Aug-21 06:34N 30°14' W 093°16'0 0.0
2016-Aug-21 05:34N 30°14' W 093°16'0 0.0
2016-Aug-21 04:33N 30°14' W 093°16'0 0.0
2016-Aug-21 03:33N 30°14' W 093°16'0 0.0
2016-Aug-21 02:33N 30°14' W 093°16'0 0.0
2016-Aug-21 01:33N 30°14' W 093°16'0 0.0
2016-Aug-21 00:34N 30°14' W 093°16'0 0.0
2016-Aug-20 23:33N 30°14' W 093°16'0 0.0
2016-Aug-20 22:34N 30°14' W 093°16'0 0.0
2016-Aug-20 21:34N 30°14' W 093°16'0 0.0
2016-Aug-20 20:34N 30°14' W 093°16'0 0.0
2016-Aug-20 19:34N 30°14' W 093°16'0 0.0
2016-Aug-20 18:34N 30°14' W 093°16'0 0.0
2016-Aug-20 17:34N 30°14' W 093°16'0 0.0
2016-Aug-20 16:34N 30°14' W 093°16'0 0.0
2016-Aug-20 15:33N 30°14' W 093°16'0 0.0
2016-Aug-20 14:34N 30°14' W 093°16'0 0.0
2016-Aug-20 13:34N 30°14' W 093°16'0 0.0
2016-Aug-20 12:33N 30°14' W 093°16'0 0.0
2016-Aug-20 11:33N 30°14' W 093°16'0 0.0
2016-Aug-20 10:33N 30°14' W 093°16'0 0.0
2016-Aug-20 09:34N 30°14' W 093°16'0 0.0
2016-Aug-20 08:33N 30°14' W 093°16'0 0.0
2016-Aug-20 07:33N 30°14' W 093°16'0 0.0
2016-Aug-20 06:33N 30°14' W 093°16'0 0.0
2016-Aug-20 05:33N 30°14' W 093°16'0 0.0
2016-Aug-20 04:34N 30°14' W 093°16'0 0.0
2016-Aug-20 03:33N 30°14' W 093°16'0 0.0
2016-Aug-20 02:33N 30°14' W 093°16'0 0.0
2016-Aug-20 01:33N 30°14' W 093°16'0 0.0
2016-Aug-20 00:33N 30°14' W 093°16'0 0.0
2016-Aug-19 23:33N 30°14' W 093°16'0 0.0
2016-Aug-19 22:33N 30°14' W 093°16'0 0.0
2016-Aug-19 21:34N 30°14' W 093°16'0 0.0
2016-Aug-19 20:34N 30°14' W 093°16'0 0.0
2016-Aug-19 19:33N 30°14' W 093°16'0 0.0
2016-Aug-19 18:33N 30°14' W 093°16'0 0.0
2016-Aug-19 17:34N 30°14' W 093°16'0 0.0
2016-Aug-19 16:34N 30°14' W 093°16'0 0.0
2016-Aug-19 15:34N 30°14' W 093°16'0 0.0
2016-Aug-19 14:34N 30°14' W 093°16'0 0.0
2016-Aug-19 13:33N 30°14' W 093°16'0 0.0
2016-Aug-19 12:34N 30°14' W 093°16'0 0.0
2016-Aug-19 11:33N 30°14' W 093°16'1 0.5
2016-Aug-19 10:33N 30°14' W 093°15'0 0.0
2016-Aug-19 09:34N 30°14' W 093°15'0 0.0
2016-Aug-19 08:33N 30°14' W 093°15'0 0.0
2016-Aug-19 07:33N 30°14' W 093°15'0 0.0
2016-Aug-19 06:33N 30°14' W 093°15'0 0.0
2016-Aug-19 05:33N 30°14' W 093°15'0 0.0
2016-Aug-19 04:33N 30°14' W 093°15'0 0.0
2016-Aug-19 03:34N 30°14' W 093°15'0 0.0
2016-Aug-19 02:33N 30°14' W 093°15'0 0.0
2016-Aug-19 01:33N 30°14' W 093°15'0 0.0
2016-Aug-19 00:33N 30°14' W 093°15'0 0.0
2016-Aug-18 23:34N 30°14' W 093°15'0 0.0
2016-Aug-18 22:34N 30°14' W 093°15'0 0.0
2016-Aug-18 21:33N 30°14' W 093°15'0 0.0
2016-Aug-18 20:34N 30°14' W 093°15'0 0.0
2016-Aug-18 19:34N 30°14' W 093°15'0 0.0
2016-Aug-18 18:33N 30°14' W 093°15'0 0.0
2016-Aug-18 17:33N 30°14' W 093°15'0 0.0
2016-Aug-18 16:33N 30°14' W 093°15'0 0.0
2016-Aug-18 15:34N 30°14' W 093°15'0 0.0
2016-Aug-18 14:34N 30°14' W 093°15'0 0.0
2016-Aug-18 13:33N 30°14' W 093°15'0 0.0
2016-Aug-18 12:33N 30°14' W 093°15'0 0.0
2016-Aug-18 11:33N 30°14' W 093°15'0 0.0
2016-Aug-18 10:34N 30°14' W 093°15'0 0.0
2016-Aug-18 09:33N 30°14' W 093°15'0 0.0
2016-Aug-18 08:34N 30°14' W 093°15'0 0.0
2016-Aug-18 07:34N 30°14' W 093°15'0 0.0
2016-Aug-18 06:34N 30°14' W 093°15'0 0.0
2016-Aug-18 05:34N 30°14' W 093°15'0 0.0
2016-Aug-18 04:33N 30°14' W 093°15'0 0.0
2016-Aug-18 03:34N 30°14' W 093°15'0 0.0
2016-Aug-18 02:34N 30°14' W 093°15'0 0.0
2016-Aug-18 01:33N 30°14' W 093°15'0 0.0
2016-Aug-18 00:33N 30°14' W 093°15'1 1.0
2016-Aug-17 23:34N 30°13' W 093°16'3 3.2
2016-Aug-17 22:34N 30°11' W 093°19'5 4.7
2016-Aug-17 21:33N 30°06' W 093°20'2 1.8
2016-Aug-17 20:34N 30°05' W 093°20'0 0.0
2016-Aug-17 19:34N 30°05' W 093°20'0 0.0
2016-Aug-17 18:34N 30°05' W 093°20'0 0.0
2016-Aug-17 17:34N 30°05' W 093°20'0 0.0
2016-Aug-17 16:33N 30°05' W 093°20'0 0.0
2016-Aug-17 15:33N 30°05' W 093°20'0 0.0
2016-Aug-17 14:34N 30°05' W 093°20'0 0.0
2016-Aug-17 13:34N 30°05' W 093°20'0 0.0
2016-Aug-17 12:34N 30°05' W 093°20'0 0.0
2016-Aug-17 11:34N 30°05' W 093°20'0 0.0
2016-Aug-17 10:33N 30°05' W 093°20'0 0.0
2016-Aug-17 09:34N 30°05' W 093°20'0 0.0
2016-Aug-17 08:34N 30°05' W 093°20'0 0.0
2016-Aug-17 07:34N 30°05' W 093°20'0 0.0
2016-Aug-17 06:34N 30°05' W 093°20'0 0.0
2016-Aug-17 05:33N 30°05' W 093°20'0 0.0
2016-Aug-17 04:33N 30°05' W 093°20'0 0.0
2016-Aug-17 03:34N 30°05' W 093°20'0 0.0
2016-Aug-17 02:33N 30°05' W 093°20'0 0.0
2016-Aug-17 01:34N 30°05' W 093°20'0 0.0
2016-Aug-17 00:34N 30°05' W 093°20'0 0.0
2016-Aug-16 23:34N 30°05' W 093°20'1 0.6
2016-Aug-16 22:33N 30°05' W 093°20'0 0.0
2016-Aug-16 21:33N 30°05' W 093°20'0 0.0
2016-Aug-16 20:33N 30°05' W 093°20'0 0.0
2016-Aug-16 19:34N 30°05' W 093°20'0 0.0
2016-Aug-16 18:34N 30°05' W 093°20'0 0.0
2016-Aug-16 17:34N 30°05' W 093°20'0 0.0
2016-Aug-16 16:33N 30°05' W 093°20'1 0.6
2016-Aug-16 15:33N 30°05' W 093°20'0 0.0
2016-Aug-16 14:34N 30°05' W 093°20'0 0.0
2016-Aug-16 13:34N 30°05' W 093°20'0 0.0
2016-Aug-16 12:34N 30°05' W 093°20'  
Track history (hours):
 
Tides and Currents Weather Stations Pressure Air Temp Water Temp Dewpoint Dewpoint Depression Visibility Wind Speed Wind Dir Waves Ship Positions

Earl Gonsoulin

Owner: LeBeouf Bros. Towing, L.L.C., Houma, LA. More information available from US FCC via Universal Licensing System and Coast Guard Vessel Documentation Center.

Last reported at 2016-Aug-26 12:13 UTC. Time now 2016-Aug-28 20:40 UTC.
Position N 29°34' W 090°30'.

Length 21 m; draft 3 m.

Type: Tug. MMSI: 367005550.

Date/timePositionNaut miles runAvg speedWind from/ knotsBaromVisibWave heightAir tempDewpointWater temp
2016-Aug-26 12:13N 29°34' W 090°30'2 3.1
2016-Aug-26 11:33N 29°34' W 090°32'3 2.9
2016-Aug-26 10:34N 29°35' W 090°36'3 2.9
2016-Aug-26 09:33N 29°36' W 090°39'3 3.4
2016-Aug-26 08:34N 29°36' W 090°43'3 2.9
2016-Aug-26 07:34N 29°34' W 090°44'4 4.0
2016-Aug-26 06:33N 29°32' W 090°48'50 2.8
2016-Aug-25 12:32N 29°46' W 091°43'5 4.4
2016-Aug-25 11:28N 29°47' W 091°48'4 4.3
2016-Aug-25 10:25N 29°51' W 091°51'4 4.8
2016-Aug-25 09:32N 29°51' W 091°56'5 4.8
2016-Aug-25 08:33N 29°49' W 092°01'5 5.2
2016-Aug-25 07:33N 29°48' W 092°07'4 4.2
2016-Aug-25 06:33N 29°47' W 092°12'9 4.7
2016-Aug-25 04:33N 29°51' W 092°21'4 4.5
2016-Aug-25 03:34N 29°53' W 092°26'6 5.8
2016-Aug-25 02:31N 29°54' W 092°33'24 4.5
2016-Aug-24 21:08N 29°56' W 093°01'3 3.8
2016-Aug-24 20:27N 29°56' W 093°04'3 3.6
2016-Aug-24 19:32N 29°56' W 093°08'4 3.8
2016-Aug-24 18:34N 29°58' W 093°11'4 3.7
2016-Aug-24 17:32N 30°01' W 093°14'3 2.6
2016-Aug-24 16:30N 30°03' W 093°16'3 2.9
2016-Aug-24 15:31N 30°05' W 093°18'3 3.2
2016-Aug-24 14:30N 30°08' W 093°20'5 5.4
2016-Aug-24 13:30N 30°12' W 093°16'1 1.4
2016-Aug-24 12:26N 30°14' W 093°16'0 0.2
2016-Aug-24 11:33N 30°14' W 093°15'0 0.0
2016-Aug-24 10:34N 30°14' W 093°15'0 0.0
2016-Aug-24 09:33N 30°14' W 093°15'0 0.0
2016-Aug-24 08:26N 30°14' W 093°15'0 0.0
2016-Aug-24 07:28N 30°14' W 093°15'0 0.0
2016-Aug-24 06:28N 30°14' W 093°15'0 0.0
2016-Aug-24 04:26N 30°14' W 093°15'0 0.0
2016-Aug-24 03:25N 30°14' W 093°15'0 0.0
2016-Aug-24 02:25N 30°14' W 093°15'0 0.0
2016-Aug-24 01:32N 30°14' W 093°15'0 0.0
2016-Aug-24 00:28N 30°14' W 093°15'0 0.0
2016-Aug-23 23:33N 30°14' W 093°15'0 0.0
2016-Aug-23 22:31N 30°14' W 093°15'0 0.0
2016-Aug-23 21:33N 30°14' W 093°15'0 0.0
2016-Aug-23 20:30N 30°14' W 093°15'0 0.0
2016-Aug-23 19:30N 30°14' W 093°15'0 0.0
2016-Aug-23 18:34N 30°14' W 093°15'0 0.5
2016-Aug-23 17:33N 30°14' W 093°16'0 0.0
2016-Aug-23 16:31N 30°14' W 093°16'0 0.0
2016-Aug-23 15:33N 30°14' W 093°16'0 0.0
2016-Aug-23 14:34N 30°14' W 093°16'0 0.0
2016-Aug-23 13:32N 30°14' W 093°16'0 0.0
2016-Aug-23 12:34N 30°14' W 093°16'0 0.0
2016-Aug-23 11:33N 30°14' W 093°16'0 0.0
2016-Aug-23 10:34N 30°14' W 093°16'0 0.0
2016-Aug-23 09:33N 30°14' W 093°16'0 0.0
2016-Aug-23 08:34N 30°14' W 093°16'0 0.0
2016-Aug-23 07:34N 30°14' W 093°16'0 0.0
2016-Aug-23 06:33N 30°14' W 093°16'0 0.0
2016-Aug-23 05:34N 30°14' W 093°16'0 0.0
2016-Aug-23 04:33N 30°14' W 093°16'0 0.0
2016-Aug-23 03:34N 30°14' W 093°16'0 0.0
2016-Aug-23 02:34N 30°14' W 093°16'0 0.0
2016-Aug-23 01:34N 30°14' W 093°16'0 0.0
2016-Aug-23 00:33N 30°14' W 093°16'0 0.0
2016-Aug-22 23:33N 30°14' W 093°16'0 0.0
2016-Aug-22 22:34N 30°14' W 093°16'0 0.0
2016-Aug-22 21:34N 30°14' W 093°16'0 0.0
2016-Aug-22 20:33N 30°14' W 093°16'0 0.0
2016-Aug-22 19:34N 30°14' W 093°16'0 0.0
2016-Aug-22 18:34N 30°14' W 093°16'0 0.0
2016-Aug-22 17:33N 30°14' W 093°16'0 0.0
2016-Aug-22 16:33N 30°14' W 093°16'0 0.0
2016-Aug-22 15:34N 30°14' W 093°16'0 0.0
2016-Aug-22 14:34N 30°14' W 093°16'0 0.0
2016-Aug-22 13:34N 30°14' W 093°16'0 0.0
2016-Aug-22 12:33N 30°14' W 093°16'0 0.0
2016-Aug-22 11:34N 30°14' W 093°16'0 0.0
2016-Aug-22 10:33N 30°14' W 093°16'0 0.0
2016-Aug-22 09:34N 30°14' W 093°16'0 0.0
2016-Aug-22 08:33N 30°14' W 093°16'0 0.0
2016-Aug-22 07:34N 30°14' W 093°16'0 0.0
2016-Aug-22 06:34N 30°14' W 093°16'0 0.0
2016-Aug-22 05:33N 30°14' W 093°16'0 0.0
2016-Aug-22 04:34N 30°14' W 093°16'0 0.0
2016-Aug-22 03:33N 30°14' W 093°16'0 0.0
2016-Aug-22 02:34N 30°14' W 093°16'0 0.0
2016-Aug-22 01:34N 30°14' W 093°16'0 0.0
2016-Aug-22 00:34N 30°14' W 093°16'0 0.0
2016-Aug-21 23:34N 30°14' W 093°16'0 0.0
2016-Aug-21 22:34N 30°14' W 093°16'0 0.0
2016-Aug-21 21:33N 30°14' W 093°16'0 0.0
2016-Aug-21 20:33N 30°14' W 093°16'0 0.0
2016-Aug-21 19:34N 30°14' W 093°16'0 0.0
2016-Aug-21 18:34N 30°14' W 093°16'0 0.0
2016-Aug-21 17:33N 30°14' W 093°16'0 0.0
2016-Aug-21 16:34N 30°14' W 093°16'0 0.0
2016-Aug-21 15:34N 30°14' W 093°16'0 0.0
2016-Aug-21 14:34N 30°14' W 093°16'0 0.0
2016-Aug-21 13:34N 30°14' W 093°16'0 0.0
2016-Aug-21 12:33N 30°14' W 093°16'0 0.0
2016-Aug-21 11:34N 30°14' W 093°16'0 0.0
2016-Aug-21 10:33N 30°14' W 093°16'0 0.0
2016-Aug-21 09:33N 30°14' W 093°16'0 0.0
2016-Aug-21 08:34N 30°14' W 093°16'0 0.0
2016-Aug-21 07:34N 30°14' W 093°16'0 0.0
2016-Aug-21 06:34N 30°14' W 093°16'0 0.0
2016-Aug-21 05:34N 30°14' W 093°16'0 0.0
2016-Aug-21 04:33N 30°14' W 093°16'0 0.0
2016-Aug-21 03:33N 30°14' W 093°16'0 0.0
2016-Aug-21 02:33N 30°14' W 093°16'0 0.0
2016-Aug-21 01:33N 30°14' W 093°16'0 0.0
2016-Aug-21 00:34N 30°14' W 093°16'0 0.0
2016-Aug-20 23:33N 30°14' W 093°16'0 0.0
2016-Aug-20 22:34N 30°14' W 093°16'0 0.0
2016-Aug-20 21:34N 30°14' W 093°16'0 0.0
2016-Aug-20 20:34N 30°14' W 093°16'0 0.0
2016-Aug-20 19:34N 30°14' W 093°16'0 0.0
2016-Aug-20 18:34N 30°14' W 093°16'0 0.0
2016-Aug-20 17:34N 30°14' W 093°16'0 0.0
2016-Aug-20 16:34N 30°14' W 093°16'0 0.0
2016-Aug-20 15:33N 30°14' W 093°16'0 0.0
2016-Aug-20 14:34N 30°14' W 093°16'0 0.0
2016-Aug-20 13:34N 30°14' W 093°16'0 0.0
2016-Aug-20 12:33N 30°14' W 093°16'0 0.0
2016-Aug-20 11:33N 30°14' W 093°16'0 0.0
2016-Aug-20 10:33N 30°14' W 093°16'0 0.0
2016-Aug-20 09:34N 30°14' W 093°16'0 0.0
2016-Aug-20 08:33N 30°14' W 093°16'0 0.0
2016-Aug-20 07:33N 30°14' W 093°16'0 0.0
2016-Aug-20 06:33N 30°14' W 093°16'0 0.0
2016-Aug-20 05:33N 30°14' W 093°16'0 0.0
2016-Aug-20 04:34N 30°14' W 093°16'0 0.0
2016-Aug-20 03:33N 30°14' W 093°16'0 0.0
2016-Aug-20 02:33N 30°14' W 093°16'0 0.0
2016-Aug-20 01:33N 30°14' W 093°16'0 0.0
2016-Aug-20 00:33N 30°14' W 093°16'0 0.0
2016-Aug-19 23:33N 30°14' W 093°16'0 0.0
2016-Aug-19 22:33N 30°14' W 093°16'0 0.0
2016-Aug-19 21:34N 30°14' W 093°16'0 0.0
2016-Aug-19 20:34N 30°14' W 093°16'0 0.0
2016-Aug-19 19:33N 30°14' W 093°16'0 0.0
2016-Aug-19 18:33N 30°14' W 093°16'0 0.0
2016-Aug-19 17:34N 30°14' W 093°16'0 0.0
2016-Aug-19 16:34N 30°14' W 093°16'0 0.0
2016-Aug-19 15:34N 30°14' W 093°16'0 0.0
2016-Aug-19 14:34N 30°14' W 093°16'0 0.0
2016-Aug-19 13:33N 30°14' W 093°16'0 0.0
2016-Aug-19 12:34N 30°14' W 093°16'0 0.0
2016-Aug-19 11:33N 30°14' W 093°16'1 0.5
2016-Aug-19 10:33N 30°14' W 093°15'0 0.0
2016-Aug-19 09:34N 30°14' W 093°15'0 0.0
2016-Aug-19 08:33N 30°14' W 093°15'0 0.0
2016-Aug-19 07:33N 30°14' W 093°15'0 0.0
2016-Aug-19 06:33N 30°14' W 093°15'0 0.0
2016-Aug-19 05:33N 30°14' W 093°15'0 0.0
2016-Aug-19 04:33N 30°14' W 093°15'0 0.0
2016-Aug-19 03:34N 30°14' W 093°15'0 0.0
2016-Aug-19 02:33N 30°14' W 093°15'0 0.0
2016-Aug-19 01:33N 30°14' W 093°15'0 0.0
2016-Aug-19 00:33N 30°14' W 093°15'0 0.0
2016-Aug-18 23:34N 30°14' W 093°15'0 0.0
2016-Aug-18 22:34N 30°14' W 093°15'0 0.0
2016-Aug-18 21:33N 30°14' W 093°15'0 0.0
2016-Aug-18 20:34N 30°14' W 093°15'0 0.0
2016-Aug-18 19:34N 30°14' W 093°15'0 0.0
2016-Aug-18 18:33N 30°14' W 093°15'0 0.0
2016-Aug-18 17:33N 30°14' W 093°15'0 0.0
2016-Aug-18 16:33N 30°14' W 093°15'0 0.0
2016-Aug-18 15:34N 30°14' W 093°15'0 0.0
2016-Aug-18 14:34N 30°14' W 093°15'0 0.0
2016-Aug-18 13:33N 30°14' W 093°15'0 0.0
2016-Aug-18 12:33N 30°14' W 093°15'0 0.0
2016-Aug-18 11:33N 30°14' W 093°15'0 0.0
2016-Aug-18 10:34N 30°14' W 093°15'0 0.0
2016-Aug-18 09:33N 30°14' W 093°15'0 0.0
2016-Aug-18 08:34N 30°14' W 093°15'0 0.0
2016-Aug-18 07:34N 30°14' W 093°15'0 0.0
2016-Aug-18 06:34N 30°14' W 093°15'0 0.0
2016-Aug-18 05:34N 30°14' W 093°15'0 0.0
2016-Aug-18 04:33N 30°14' W 093°15'0 0.0
2016-Aug-18 03:34N 30°14' W 093°15'0 0.0
2016-Aug-18 02:34N 30°14' W 093°15'0 0.0
2016-Aug-18 01:33N 30°14' W 093°15'0 0.0
2016-Aug-18 00:33N 30°14' W 093°15'1 1.0
2016-Aug-17 23:34N 30°13' W 093°16'3 3.2
2016-Aug-17 22:34N 30°11' W 093°19'5 4.7
2016-Aug-17 21:33N 30°06' W 093°20'2 1.8
2016-Aug-17 20:34N 30°05' W 093°20'0 0.0
2016-Aug-17 19:34N 30°05' W 093°20'0 0.0
2016-Aug-17 18:34N 30°05' W 093°20'0 0.0
2016-Aug-17 17:34N 30°05' W 093°20'0 0.0
2016-Aug-17 16:33N 30°05' W 093°20'0 0.0
2016-Aug-17 15:33N 30°05' W 093°20'0 0.0
2016-Aug-17 14:34N 30°05' W 093°20'0 0.0
2016-Aug-17 13:34N 30°05' W 093°20'0 0.0
2016-Aug-17 12:34N 30°05' W 093°20'0 0.0
2016-Aug-17 11:34N 30°05' W 093°20'0 0.0
2016-Aug-17 10:33N 30°05' W 093°20'0 0.0
2016-Aug-17 09:34N 30°05' W 093°20'0 0.0
2016-Aug-17 08:34N 30°05' W 093°20'0 0.0
2016-Aug-17 07:34N 30°05' W 093°20'0 0.0
2016-Aug-17 06:34N 30°05' W 093°20'0 0.0
2016-Aug-17 05:33N 30°05' W 093°20'0 0.0
2016-Aug-17 04:33N 30°05' W 093°20'0 0.0
2016-Aug-17 03:34N 30°05' W 093°20'0 0.0
2016-Aug-17 02:33N 30°05' W 093°20'0 0.0
2016-Aug-17 01:34N 30°05' W 093°20'0 0.0
2016-Aug-17 00:34N 30°05' W 093°20'0 0.0
2016-Aug-16 23:34N 30°05' W 093°20'1 0.6
2016-Aug-16 22:33N 30°05' W 093°20'0 0.0
2016-Aug-16 21:33N 30°05' W 093°20'0 0.0
2016-Aug-16 20:33N 30°05' W 093°20'0 0.0
2016-Aug-16 19:34N 30°05' W 093°20'0 0.0
2016-Aug-16 18:34N 30°05' W 093°20'0 0.0
2016-Aug-16 17:34N 30°05' W 093°20'0 0.0
2016-Aug-16 16:33N 30°05' W 093°20'1 0.6
2016-Aug-16 15:33N 30°05' W 093°20'0 0.0
2016-Aug-16 14:34N 30°05' W 093°20'0 0.0
2016-Aug-16 13:34N 30°05' W 093°20'0 0.0
2016-Aug-16 12:34N 30°05' W 093°20'  

Dump ship's entire track history